createdAt,value
2023-01-18T00:01:20.492Z,1.98
2023-01-18T00:03:48.456Z,2.45
2023-01-18T00:06:17.732Z,2.92
2023-01-18T00:08:45.703Z,2.80
2023-01-18T00:11:17.172Z,1.83
2023-01-18T00:13:45.391Z,2.53
2023-01-18T00:16:19.295Z,2.60
2023-01-18T00:18:59.449Z,2.53
2023-01-18T00:21:28.508Z,2.78
2023-01-18T00:26:26.594Z,2.55
2023-01-18T00:28:57.314Z,2.70
2023-01-18T00:31:25.300Z,3.13
2023-01-18T00:33:53.266Z,2.50
2023-01-18T00:36:21.144Z,3.00
2023-01-18T00:38:52.749Z,2.20
2023-01-18T00:41:21.781Z,1.77
2023-01-18T00:46:24.703Z,1.88
2023-01-18T00:48:54.288Z,1.77
2023-01-18T00:51:25.591Z,2.00
2023-01-18T00:53:53.637Z,0.98
2023-01-18T00:56:23.321Z,1.65
2023-01-18T00:58:51.317Z,1.17
2023-01-18T01:01:19.307Z,1.55
2023-01-18T01:04:06.071Z,1.48
2023-01-18T01:06:45.457Z,1.70
2023-01-18T01:09:23.645Z,1.55
2023-01-18T01:12:10.832Z,1.20
2023-01-18T01:15:01.875Z,1.88
2023-01-18T01:17:50.307Z,0.77
2023-01-18T01:20:37.466Z,0.95
2023-01-18T01:23:41.337Z,0.95
2023-01-18T01:26:11.760Z,0.63
2023-01-18T01:28:42.543Z,1.10
2023-01-18T01:31:16.214Z,0.80
2023-01-18T01:33:49.214Z,0.40
2023-01-18T01:36:20.611Z,0.45
2023-01-18T01:38:48.148Z,0.40
2023-01-18T01:41:33.647Z,0.52
2023-01-18T01:44:21.237Z,0.70
2023-01-18T01:47:12.199Z,0.82
2023-01-18T01:49:52.655Z,0.90
2023-01-18T01:52:28.497Z,0.52
2023-01-18T01:55:18.144Z,0.40
2023-01-18T01:58:21.878Z,0.45
2023-01-18T02:00:49.705Z,0.63
2023-01-18T02:03:18.542Z,0.68
2023-01-18T02:05:56.008Z,0.32
2023-01-18T02:08:25.874Z,0.32
2023-01-18T02:10:54.322Z,0.22
2023-01-18T02:13:24.520Z,0.10
2023-01-18T02:16:28.601Z,0.22
2023-01-18T02:19:31.916Z,0.22
2023-01-18T02:22:16.778Z,0.05
2023-01-18T02:25:02.303Z,0.10
2023-01-18T02:27:51.088Z,0.20
2023-01-18T02:30:35.951Z,0.32
2023-01-18T02:33:19.311Z,0.05
2023-01-18T02:35:56.663Z,0.05
2023-01-18T02:38:44.670Z,0.10
2023-01-18T02:41:20.202Z,0.08
2023-01-18T02:44:12.032Z,0.00
2023-01-18T02:46:40.522Z,0.10
2023-01-18T02:49:09.187Z,0.00
2023-01-18T02:51:38.334Z,0.10
2023-01-18T02:54:10.063Z,0.20
2023-01-18T02:56:57.473Z,0.10
2023-01-18T02:59:43.181Z,0.10
2023-01-18T03:02:17.118Z,0.10
2023-01-18T03:04:54.544Z,0.10
2023-01-18T03:07:51.555Z,0.13
2023-01-18T03:10:21.985Z,0.25
2023-01-18T03:13:22.512Z,0.10
2023-01-18T03:16:09.683Z,0.10
2023-01-18T03:19:02.534Z,0.17
2023-01-18T03:21:48.743Z,0.10
2023-01-18T03:24:18.980Z,0.10
2023-01-18T03:26:53.586Z,0.13
2023-01-18T03:29:41.276Z,0.10
2023-01-18T03:32:33.974Z,0.00
2023-01-18T03:35:27.014Z,0.00
2023-01-18T03:37:57.855Z,0.10
2023-01-18T03:40:29.485Z,0.15
2023-01-18T03:43:16.309Z,0.10
2023-01-18T03:45:48.417Z,0.00
2023-01-18T03:48:16.856Z,0.10
2023-01-18T03:51:29.905Z,0.00
2023-01-18T03:54:12.610Z,0.03
2023-01-18T03:56:59.188Z,0.08
2023-01-18T03:59:33.111Z,0.20
2023-01-18T04:02:03.427Z,0.20
2023-01-18T04:04:31.104Z,0.20
2023-01-18T04:06:59.517Z,0.10
2023-01-18T04:09:27.591Z,0.00
2023-01-18T04:11:55.591Z,0.20
2023-01-18T04:14:23.158Z,0.05
2023-01-18T04:16:51.181Z,0.00
2023-01-18T04:19:19.047Z,0.10
2023-01-18T04:21:46.962Z,0.10
2023-01-18T04:24:16.401Z,0.00
2023-01-18T04:26:44.301Z,0.10
2023-01-18T04:29:12.359Z,0.00
2023-01-18T04:31:40.237Z,0.10
2023-01-18T04:34:08.079Z,0.10
2023-01-18T04:36:36.189Z,0.00
2023-01-18T04:39:04.017Z,0.10
2023-01-18T04:41:32.199Z,0.00
2023-01-18T04:44:00.377Z,0.10
2023-01-18T04:46:28.429Z,0.40
2023-01-18T04:48:56.038Z,0.50
2023-01-18T04:51:24.285Z,0.17
2023-01-18T04:53:52.265Z,0.28
2023-01-18T04:56:20.323Z,0.20
2023-01-18T04:58:47.952Z,0.10
2023-01-18T05:01:17.274Z,0.20
2023-01-18T05:03:45.123Z,0.05
2023-01-18T05:06:15.282Z,0.10
2023-01-18T05:08:43.488Z,0.10
2023-01-18T05:11:15.767Z,0.10
2023-01-18T05:13:45.031Z,0.00
2023-01-18T05:18:47.821Z,0.20
2023-01-18T05:21:16.323Z,0.15
2023-01-18T05:23:44.278Z,0.13
2023-01-18T05:26:24.303Z,0.20
2023-01-18T05:28:57.747Z,0.20
2023-01-18T05:31:26.433Z,0.30
2023-01-18T05:33:54.103Z,0.20
2023-01-18T05:36:22.271Z,0.17
2023-01-18T05:38:49.844Z,0.40
2023-01-18T05:41:18.046Z,0.47
2023-01-18T05:43:45.653Z,0.50
2023-01-18T05:46:13.724Z,0.30
2023-01-18T05:48:41.324Z,0.40
2023-01-18T05:51:11.564Z,0.10
2023-01-18T05:53:40.602Z,0.10
2023-01-18T05:58:37.329Z,0.22
2023-01-18T06:01:05.397Z,0.30
2023-01-18T06:03:33.136Z,0.50
2023-01-18T06:06:01.878Z,0.50
2023-01-18T06:08:29.712Z,0.40
2023-01-18T06:10:59.778Z,0.25
2023-01-18T06:13:31.304Z,1.40
2023-01-18T06:16:00.931Z,2.65
2023-01-18T06:21:01.947Z,0.88
2023-01-18T06:23:30.555Z,0.40
2023-01-18T06:25:59.126Z,0.50
2023-01-18T06:28:29.720Z,0.60
2023-01-18T06:30:58.807Z,0.85
2023-01-18T06:33:26.462Z,1.23
2023-01-18T06:35:54.539Z,1.23
2023-01-18T06:38:22.210Z,1.13
2023-01-18T06:40:50.153Z,1.20
2023-01-18T06:43:17.727Z,0.77
2023-01-18T06:45:57.906Z,0.95
2023-01-18T06:48:27.436Z,1.02
2023-01-18T06:50:58.592Z,1.00
2023-01-18T06:53:26.776Z,0.85
2023-01-18T06:56:02.037Z,0.73
2023-01-18T06:58:33.623Z,1.70
2023-01-18T07:01:02.157Z,1.77
2023-01-18T07:03:31.704Z,2.00
2023-01-18T07:06:02.514Z,1.60
2023-01-18T07:08:31.201Z,0.95
2023-01-18T07:11:03.844Z,1.27
2023-01-18T07:13:32.116Z,1.02
2023-01-18T07:16:02.093Z,0.90
2023-01-18T07:18:30.801Z,0.63
2023-01-18T07:21:07.190Z,0.85
2023-01-18T07:23:39.853Z,0.50
2023-01-18T07:26:12.570Z,0.63
2023-01-18T07:28:40.153Z,0.38
2023-01-18T07:31:08.510Z,0.40
2023-01-18T07:33:36.860Z,0.40
2023-01-18T07:36:06.733Z,0.43
2023-01-18T07:38:34.734Z,0.40
2023-01-18T07:41:09.676Z,0.57
2023-01-18T07:43:37.827Z,0.25
2023-01-18T07:46:08.308Z,0.30
2023-01-18T07:48:38.755Z,0.70
2023-01-18T07:51:09.737Z,0.17
2023-01-18T07:53:38.980Z,0.30
2023-01-18T07:56:11.943Z,0.47
2023-01-18T07:58:39.997Z,0.73
2023-01-18T08:01:14.352Z,0.43
2023-01-18T08:03:50.039Z,0.50
2023-01-18T08:06:27.703Z,0.40
2023-01-18T08:08:57.063Z,0.45
2023-01-18T08:11:24.949Z,0.98
2023-01-18T08:13:52.952Z,1.13
2023-01-18T08:16:20.986Z,0.40
2023-01-18T08:18:51.801Z,0.45
2023-01-18T08:21:19.735Z,0.20
2023-01-18T08:23:47.309Z,0.10
2023-01-18T08:26:15.349Z,0.10
2023-01-18T08:28:44.798Z,0.63
2023-01-18T08:31:17.522Z,0.40
2023-01-18T08:33:48.893Z,0.20
2023-01-18T08:36:21.122Z,0.17
2023-01-18T08:38:51.023Z,0.10
2023-01-18T08:41:20.833Z,0.20
2023-01-18T08:46:21.084Z,0.20
2023-01-18T08:48:53.818Z,0.10
2023-01-18T08:51:23.164Z,0.28
2023-01-18T08:53:56.634Z,0.38
2023-01-18T08:56:24.888Z,0.10
2023-01-18T08:58:52.484Z,0.20
2023-01-18T09:01:23.194Z,0.10
2023-01-18T09:03:55.822Z,0.10
2023-01-18T09:06:24.115Z,0.20
2023-01-18T09:08:52.173Z,0.20
2023-01-18T09:11:20.048Z,0.20
2023-01-18T09:14:00.350Z,0.20
2023-01-18T09:16:31.074Z,0.30
2023-01-18T09:18:59.981Z,0.43
2023-01-18T09:21:28.805Z,0.30
2023-01-18T09:23:57.039Z,0.20
2023-01-18T09:26:25.484Z,0.10
2023-01-18T09:28:53.845Z,0.10
2023-01-18T09:31:25.303Z,0.20
2023-01-18T09:33:54.262Z,0.17
2023-01-18T09:36:26.523Z,0.35
2023-01-18T09:38:55.935Z,0.10
2023-01-18T09:41:33.428Z,0.10
2023-01-18T09:44:18.097Z,0.10
2023-01-18T09:47:15.081Z,0.10
2023-01-18T09:49:55.079Z,0.10
2023-01-18T09:52:32.756Z,0.10
2023-01-18T09:55:24.309Z,0.10
2023-01-18T09:58:29.236Z,0.30
2023-01-18T10:01:08.407Z,0.15
2023-01-18T10:03:46.525Z,0.10
2023-01-18T10:06:43.699Z,0.20
2023-01-18T10:09:49.832Z,0.10
2023-01-18T10:12:45.463Z,0.00
2023-01-18T10:15:29.742Z,0.10
2023-01-18T10:18:00.562Z,0.35
2023-01-18T10:20:46.794Z,0.08
2023-01-18T10:24:09.488Z,0.13
2023-01-18T10:26:39.654Z,0.10
2023-01-18T10:29:27.425Z,0.00
2023-01-18T10:32:05.104Z,0.10
2023-01-18T10:34:41.081Z,0.10
2023-01-18T10:37:26.351Z,0.20
2023-01-18T10:40:07.798Z,0.20
2023-01-18T10:43:15.557Z,0.10
2023-01-18T10:45:43.190Z,0.28
2023-01-18T10:48:32.473Z,0.10
2023-01-18T10:51:07.710Z,0.20
2023-01-18T10:53:38.414Z,0.20
2023-01-18T10:56:20.992Z,0.20
2023-01-18T10:58:51.351Z,0.10
2023-01-18T11:01:24.747Z,0.22
2023-01-18T11:03:57.401Z,0.55
2023-01-18T11:06:25.625Z,1.38
2023-01-18T11:08:54.109Z,0.20
2023-01-18T11:11:46.691Z,0.20
2023-01-18T11:14:32.070Z,0.15
2023-01-18T11:17:10.947Z,0.30
2023-01-18T11:19:41.532Z,0.30
2023-01-18T11:22:13.866Z,0.30
2023-01-18T11:24:42.633Z,0.20
2023-01-18T11:27:19.168Z,0.25
2023-01-18T11:29:47.485Z,0.43
2023-01-18T11:32:28.605Z,0.20
2023-01-18T11:35:00.156Z,0.40
2023-01-18T11:37:41.071Z,0.35
2023-01-18T11:40:28.039Z,0.43
2023-01-18T11:43:24.317Z,0.57
2023-01-18T11:46:00.300Z,0.40
2023-01-18T11:48:48.706Z,0.55
2023-01-18T11:51:39.057Z,0.47
2023-01-18T11:54:48.352Z,0.80
2023-01-18T11:57:16.218Z,0.17
2023-01-18T11:59:46.321Z,1.00
2023-01-18T12:02:56.251Z,0.57
2023-01-18T12:05:53.047Z,0.40
2023-01-18T12:08:51.695Z,0.10
2023-01-18T12:11:47.387Z,0.20
2023-01-18T12:14:16.151Z,0.50
2023-01-18T12:17:40.664Z,0.30
2023-01-18T12:20:21.084Z,0.20
2023-01-18T12:22:59.254Z,0.13
2023-01-18T12:25:29.873Z,0.17
2023-01-18T12:28:31.492Z,0.10
2023-01-18T12:31:36.749Z,0.40
2023-01-18T12:34:17.997Z,0.20
2023-01-18T12:37:22.934Z,0.30
2023-01-18T12:40:17.579Z,0.47
2023-01-18T12:43:09.254Z,0.20
2023-01-18T12:46:22.569Z,0.20
2023-01-18T12:49:02.128Z,0.98
2023-01-18T12:51:35.529Z,0.57
2023-01-18T12:54:20.889Z,0.65
2023-01-18T12:56:53.547Z,2.35
2023-01-18T12:59:38.981Z,3.28
2023-01-18T13:02:39.255Z,1.42
2023-01-18T13:05:43.200Z,1.00
2023-01-18T13:08:21.189Z,1.67
2023-01-18T13:10:49.753Z,1.92
2023-01-18T13:13:27.012Z,1.17
2023-01-18T13:16:36.250Z,1.55
2023-01-18T13:19:12.904Z,1.17
2023-01-18T13:22:28.693Z,1.42
2023-01-18T13:25:29.434Z,2.35
2023-01-18T13:28:03.145Z,2.95
2023-01-18T13:30:43.805Z,2.55
2023-01-18T13:33:17.085Z,2.60
2023-01-18T13:36:07.910Z,2.70
2023-01-18T13:39:05.348Z,2.65
2023-01-18T13:41:32.906Z,4.38
2023-01-18T13:44:04.184Z,3.97
2023-01-18T13:46:36.782Z,2.35
2023-01-18T13:49:46.742Z,2.13
2023-01-18T13:52:43.477Z,2.30
2023-01-18T13:55:32.198Z,1.98
2023-01-18T13:58:00.160Z,2.75
2023-01-18T14:00:30.124Z,1.60
2023-01-18T14:03:20.627Z,1.33
2023-01-18T14:05:50.410Z,1.50
2023-01-18T14:08:32.678Z,1.08
2023-01-18T14:11:10.604Z,1.50
2023-01-18T14:13:48.311Z,1.90
2023-01-18T14:16:27.070Z,1.52
2023-01-18T14:19:12.013Z,1.50
2023-01-18T14:22:12.782Z,2.42
2023-01-18T14:24:50.173Z,1.67
2023-01-18T14:27:24.351Z,1.38
2023-01-18T14:30:31.954Z,1.73
2023-01-18T14:33:13.221Z,2.30
2023-01-18T14:35:54.039Z,3.05
2023-01-18T14:38:22.078Z,2.38
2023-01-18T14:40:59.481Z,2.78
2023-01-18T14:43:35.268Z,2.42
2023-01-18T14:46:15.880Z,2.55
2023-01-18T14:48:54.624Z,2.33
2023-01-18T14:51:28.447Z,2.05
2023-01-18T14:54:02.940Z,2.65
2023-01-18T14:56:39.924Z,2.03
2023-01-18T14:59:27.520Z,1.02
2023-01-18T15:02:22.626Z,1.50
2023-01-18T15:04:50.650Z,3.28
2023-01-18T15:07:33.905Z,3.20
2023-01-18T15:10:01.958Z,3.22
2023-01-18T15:12:33.557Z,3.67
2023-01-18T15:15:20.402Z,3.58
2023-01-18T15:17:49.588Z,3.30
2023-01-18T15:20:17.718Z,3.60
2023-01-18T15:22:45.224Z,2.33
2023-01-18T15:25:28.951Z,3.63
2023-01-18T15:28:11.867Z,2.92
2023-01-18T15:30:56.188Z,2.80
2023-01-18T15:33:27.296Z,3.17
2023-01-18T15:36:01.070Z,2.28
2023-01-18T15:38:29.031Z,2.97
2023-01-18T15:41:12.541Z,2.85
2023-01-18T15:43:46.216Z,2.80
2023-01-18T15:46:17.235Z,3.33
2023-01-18T15:48:53.676Z,3.25
2023-01-18T15:51:43.110Z,4.38
2023-01-18T15:54:19.844Z,4.20
2023-01-18T15:56:49.032Z,3.35
2023-01-18T15:59:26.642Z,2.33
2023-01-18T16:02:18.800Z,2.38
2023-01-18T16:04:46.862Z,1.58
2023-01-18T16:07:30.016Z,1.60
2023-01-18T16:10:30.520Z,2.28
2023-01-18T16:13:26.332Z,2.08
2023-01-18T16:16:15.463Z,1.70
2023-01-18T16:18:59.837Z,2.40
2023-01-18T16:21:58.707Z,2.40
2023-01-18T16:24:33.706Z,4.07
2023-01-18T16:27:15.750Z,2.85
2023-01-18T16:29:51.158Z,2.33
2023-01-18T16:32:23.418Z,3.78
2023-01-18T16:34:55.177Z,3.95
2023-01-18T16:37:22.923Z,3.42
2023-01-18T16:39:50.790Z,3.30
2023-01-18T16:42:21.705Z,3.90
2023-01-18T16:44:54.855Z,4.30
2023-01-18T16:47:22.959Z,4.68
2023-01-18T16:49:51.082Z,4.28
2023-01-18T16:52:18.670Z,4.50
2023-01-18T16:54:46.667Z,4.20
2023-01-18T16:57:23.654Z,4.80
2023-01-18T16:59:52.610Z,5.55
2023-01-18T17:02:20.414Z,5.50
2023-01-18T17:04:48.459Z,7.35
2023-01-18T17:07:16.827Z,6.38
2023-01-18T17:09:48.738Z,6.03
2023-01-18T17:12:16.969Z,6.00
2023-01-18T17:14:44.832Z,6.43
2023-01-18T17:17:13.349Z,10.52
2023-01-18T17:19:44.211Z,13.18
2023-01-18T17:22:11.926Z,15.70
2023-01-18T17:24:40.160Z,18.00
2023-01-18T17:27:10.527Z,17.30
2023-01-18T17:29:38.667Z,16.60
2023-01-18T17:32:07.994Z,16.08
2023-01-18T17:34:35.823Z,14.82
2023-01-18T17:37:03.603Z,13.13
2023-01-18T17:39:42.539Z,13.93
2023-01-18T17:42:22.901Z,15.85
2023-01-18T17:45:04.216Z,13.77
2023-01-18T17:47:34.755Z,12.88
2023-01-18T17:50:09.148Z,14.18
2023-01-18T17:52:38.965Z,10.45
2023-01-18T17:55:11.717Z,9.48
2023-01-18T17:57:40.355Z,10.48
2023-01-18T18:00:11.863Z,10.80
2023-01-18T18:02:41.011Z,10.25
2023-01-18T18:07:37.843Z,10.93
2023-01-18T18:10:06.945Z,13.32
2023-01-18T18:12:35.741Z,14.05
2023-01-18T18:15:05.612Z,13.63
2023-01-18T18:17:33.829Z,14.45
2023-01-18T18:20:01.995Z,13.53
2023-01-18T18:22:31.761Z,12.38
2023-01-18T18:24:59.673Z,10.27
2023-01-18T18:27:37.467Z,9.27
2023-01-18T18:30:13.507Z,9.98
2023-01-18T18:32:41.192Z,8.83
2023-01-18T18:35:23.993Z,6.88
2023-01-18T18:37:54.191Z,4.43
2023-01-18T18:40:22.417Z,1.25
2023-01-18T18:43:01.190Z,1.13
2023-01-18T18:45:32.219Z,0.98
2023-01-18T18:50:29.745Z,0.88
2023-01-18T18:52:58.826Z,0.77
2023-01-18T18:55:27.083Z,1.77
2023-01-18T18:57:54.783Z,2.60
2023-01-18T19:00:24.624Z,3.05
2023-01-18T19:02:57.333Z,4.00
2023-01-18T19:05:26.054Z,4.43
2023-01-18T19:07:53.841Z,4.55
2023-01-18T19:10:30.956Z,5.32
2023-01-18T19:12:59.784Z,11.10
2023-01-18T19:17:56.416Z,11.38
2023-01-18T19:20:24.637Z,14.93
2023-01-18T19:22:52.353Z,14.93
2023-01-18T19:25:23.426Z,15.10
2023-01-18T19:27:57.559Z,16.50
2023-01-18T19:30:42.523Z,16.80
2023-01-18T19:33:19.572Z,18.80
2023-01-18T19:35:51.303Z,19.33
2023-01-18T19:38:19.142Z,21.13
2023-01-18T19:40:47.185Z,19.30
2023-01-18T19:43:17.091Z,19.58
2023-01-18T19:45:46.861Z,19.40
2023-01-18T19:48:15.372Z,21.70
2023-01-18T19:50:53.807Z,18.80
2023-01-18T19:53:28.603Z,18.05
2023-01-18T19:56:06.467Z,16.20
2023-01-18T19:58:41.234Z,15.43
2023-01-18T20:01:35.825Z,15.70
2023-01-18T20:04:08.330Z,13.07
2023-01-18T20:06:39.867Z,13.50
2023-01-18T20:09:18.459Z,13.23
2023-01-18T20:11:47.834Z,12.32
2023-01-18T20:14:15.696Z,9.73
2023-01-18T20:16:45.966Z,10.90
2023-01-18T20:19:17.696Z,10.73
2023-01-18T20:21:46.031Z,8.90
2023-01-18T20:24:14.433Z,9.35
2023-01-18T20:26:43.874Z,9.90
2023-01-18T20:29:11.536Z,9.48
2023-01-18T20:31:41.055Z,13.73
2023-01-18T20:34:10.264Z,8.02
2023-01-18T20:36:38.194Z,22.85
2023-01-18T20:39:06.730Z,8.38
2023-01-18T20:41:34.674Z,13.32
2023-01-18T20:44:02.604Z,10.43
2023-01-18T20:46:30.417Z,12.82
2023-01-18T20:48:58.534Z,15.10
2023-01-18T20:51:27.194Z,9.80
2023-01-18T20:53:54.768Z,10.77
2023-01-18T20:56:29.108Z,11.32
2023-01-18T20:58:59.842Z,16.92
2023-01-18T21:01:34.441Z,16.40
2023-01-18T21:04:04.596Z,13.52
2023-01-18T21:06:32.696Z,10.68
2023-01-18T21:09:01.493Z,8.30
2023-01-18T21:11:30.117Z,9.32
2023-01-18T21:13:59.899Z,9.13
2023-01-18T21:16:30.480Z,8.85
2023-01-18T21:18:59.219Z,7.03
2023-01-18T21:21:29.452Z,8.93
2023-01-18T21:23:57.098Z,8.15
2023-01-18T21:26:25.376Z,8.10
2023-01-18T21:28:53.249Z,9.88
2023-01-18T21:31:21.978Z,7.88
2023-01-18T21:33:53.984Z,8.80
2023-01-18T21:36:24.093Z,8.15
2023-01-18T21:39:23.309Z,7.28
2023-01-18T21:42:26.177Z,5.65
2023-01-18T21:45:25.893Z,5.80
2023-01-18T21:51:47.702Z,5.05
2023-01-18T21:54:19.798Z,5.15
2023-01-18T21:56:54.862Z,4.72
2023-01-18T21:59:28.996Z,4.50
2023-01-18T22:02:02.233Z,5.75
2023-01-18T22:04:54.993Z,8.90
2023-01-18T22:07:33.708Z,7.68
2023-01-18T22:10:07.321Z,7.65
2023-01-18T22:12:40.925Z,7.88
2023-01-18T22:15:16.252Z,9.02
2023-01-18T22:17:48.788Z,9.70
2023-01-18T22:20:19.888Z,9.25
2023-01-18T22:22:52.898Z,10.07
2023-01-18T22:25:26.100Z,9.10
2023-01-18T22:27:58.694Z,8.27
2023-01-18T22:30:31.776Z,8.23
2023-01-18T22:33:06.516Z,8.45
2023-01-18T22:35:42.189Z,9.18
2023-01-18T22:38:15.669Z,9.05
2023-01-18T22:40:49.565Z,8.60
2023-01-18T22:43:22.647Z,6.95
2023-01-18T22:45:59.892Z,9.20
2023-01-18T22:48:34.385Z,8.80
2023-01-18T22:51:25.600Z,7.80
2023-01-18T22:54:00.186Z,6.90
2023-01-18T22:56:36.727Z,7.30
2023-01-18T22:59:12.963Z,8.27
2023-01-18T23:01:45.888Z,9.27
2023-01-18T23:04:18.552Z,8.75
2023-01-18T23:06:52.564Z,7.28
2023-01-18T23:09:22.676Z,8.40
2023-01-18T23:11:51.705Z,8.57
2023-01-18T23:14:37.799Z,8.50
2023-01-18T23:17:24.481Z,9.73
2023-01-18T23:19:54.159Z,10.80
2023-01-18T23:22:22.266Z,10.50
2023-01-18T23:24:49.796Z,9.40
2023-01-18T23:27:18.032Z,9.38
2023-01-18T23:29:56.676Z,9.05
2023-01-18T23:32:30.331Z,8.65
2023-01-18T23:34:59.540Z,8.65
2023-01-18T23:40:13.459Z,8.45
2023-01-18T23:43:00.679Z,9.02
2023-01-18T23:45:47.037Z,9.48
2023-01-18T23:48:38.138Z,9.80
2023-01-18T23:51:26.434Z,9.30
2023-01-18T23:56:44.475Z,7.78
2023-01-18T23:59:14.100Z,7.80
